CheckWX is a tool to help pilots better visualize weather data.  It is not intended as a substitute for an official pre-flight weather briefing.

10:19:16 UTC

ETHS METAR
Fassberg Airport
Germany
Current

59 mins ago

ETHS 210920Z 29008KT 7000 BKN015 11/07 Q1034 WHT
Observed
Mar-21 @ 09:20 UTC
Wind
  • 290° at 8 KTS
Visibility
7,001 meters
Flight Rules
MVFR
Cloud Levels
  • Broken at 1,500' AGL
Temperature
11°C / 52°F
Dewpoint
C / 45°F
Humidity
77%
Altimeter
30.53" Hg
Pressure
1033.91 hPa
Previous

2 hours ago

ETHS 210820Z 27013KT 7000 BKN015 11/07 Q1033 WHT
Observed
Mar-21 @ 08:20 UTC
Wind
  • 270° at 13 KTS
Visibility
7,001 meters
Flight Rules
MVFR
Cloud Levels
  • Broken at 1,500' AGL
Temperature
11°C / 52°F
Dewpoint
C / 45°F
Humidity
77%
Altimeter
30.5" Hg
Pressure
1032.91 hPa
Previous

3 hours ago

ETHS 210720Z 26008KT 7000 BKN021 10/07 Q1033 WHT
Observed
Mar-21 @ 07:20 UTC
Wind
  • 260° at 8 KTS
Visibility
7,001 meters
Flight Rules
MVFR
Cloud Levels
  • Broken at 2,100' AGL
Temperature
10°C / 50°F
Dewpoint
C / 45°F
Humidity
82%
Altimeter
30.5" Hg
Pressure
1032.91 hPa